Belleview, Kentucky
Current Conditions -  °F | °C
As of 11:52 PM on Friday 28 Nov 2014 (Local Time) from KCVG Reporting Station
Overcast Overcast  
Wind Chill: 24°   Ceiling: 19000
Heat Index: 32°   Visibility: 10mi
Dew Point: 17°   Wind: 10mph
Humidity: 54%   Direction: 140°SE
Pressure: 30.07"   Gusts: NA
Location:  39.0238°N, 84.7647°W
Report Text: KCVG 290452Z 14009KT 10SM OVC190 00/M08 A3007 RMK AO2 SLP188 T00001083 400171039
Loading
Personal Weather Stations






























Interactive Weather Map New forecast layout! Learn more

10-Day Weather Forecast

Advertisements
Track Severe Weather on mobile